Time;durP1;ratioP1;P1;durP2;ratioP2;P2;SDS_P1;SDS_P2;PMS_P1;PMS_P2;Temp;Humidity;BMP_temperature;BMP_pressure;BME280_temperature;BME280_humidity;BME280_pressure;Samples;Min_cycle;Max_cycle;Signal;HPM_P1;HPM_P2
2021/04/07 00:00:12;;;;;;;15.93;8.97;;;2.50;81.70;;;;;;5058673;28;20226;-67
2021/04/07 00:02:38;;;;;;;17.73;9.07;;;2.50;81.80;;;;;;5055384;28;20236;-68
2021/04/07 00:05:08;;;;;;;19.40;9.10;;;2.40;82.00;;;;;;5052932;28;20584;-68
2021/04/07 00:07:35;;;;;;;18.57;8.83;;;2.40;82.40;;;;;;5057876;28;20644;-68
2021/04/07 00:10:03;;;;;;;18.00;8.90;;;2.30;82.70;;;;;;5056411;28;20582;-68
2021/04/07 00:12:30;;;;;;;15.77;9.17;;;2.40;83.40;;;;;;5061989;28;20209;-68
2021/04/07 00:14:56;;;;;;;16.37;9.07;;;2.30;83.50;;;;;;5055658;28;20290;-67
2021/04/07 00:17:23;;;;;;;16.63;8.90;;;2.30;84.00;;;;;;5062571;28;20297;-68
2021/04/07 00:19:49;;;;;;;21.03;9.97;;;2.20;84.30;;;;;;5057004;28;20206;-68
2021/04/07 00:22:15;;;;;;;19.67;9.40;;;2.30;84.70;;;;;;5053863;28;20210;-67
2021/04/07 00:24:42;;;;;;;21.63;9.73;;;2.20;85.00;;;;;;5059509;28;20663;-68
2021/04/07 00:27:10;;;;;;;20.67;11.00;;;2.20;85.60;;;;;;5056109;28;20321;-69
2021/04/07 00:29:38;;;;;;;20.43;9.83;;;2.20;86.00;;;;;;5061402;28;20289;-69
2021/04/07 00:32:05;;;;;;;17.13;9.73;;;2.20;86.50;;;;;;5056467;28;20613;-68
2021/04/07 00:34:33;;;;;;;17.73;9.33;;;2.20;87.10;;;;;;5062635;28;20214;-66
2021/04/07 00:37:00;;;;;;;19.23;9.43;;;2.10;87.80;;;;;;5055725;28;20208;-67
2021/04/07 00:39:26;;;;;;;20.13;10.20;;;2.10;88.00;;;;;;5057206;28;20205;-67
2021/04/07 00:41:53;;;;;;;20.10;9.93;;;2.00;88.90;;;;;;5057955;28;20340;-68
2021/04/07 00:44:19;;;;;;;17.87;9.43;;;2.00;89.80;;;;;;5052740;28;20301;-68
2021/04/07 00:46:46;;;;;;;20.13;9.53;;;2.00;90.30;;;;;;5054660;28;20313;-68
2021/04/07 00:49:13;;;;;;;19.93;9.30;;;1.90;90.70;;;;;;5054781;28;20210;-66
2021/04/07 00:51:43;;;;;;;18.33;10.00;;;1.90;91.10;;;;;;5053193;28;20210;-68
2021/04/07 00:54:10;;;;;;;25.20;10.37;;;1.90;91.60;;;;;;5055974;28;20202;-66
2021/04/07 00:56:37;;;;;;;18.30;9.73;;;1.90;92.00;;;;;;5060469;28;20206;-68
2021/04/07 00:59:04;;;;;;;20.40;9.63;;;1.90;92.40;;;;;;5057778;28;20344;-67
2021/04/07 01:01:30;;;;;;;17.23;9.47;;;1.90;92.90;;;;;;5058114;28;20220;-67
2021/04/07 01:03:58;;;;;;;18.47;9.80;;;1.90;93.20;;;;;;5062528;28;20210;-67
2021/04/07 01:06:25;;;;;;;19.43;9.10;;;1.90;93.70;;;;;;5058754;28;20291;-67
2021/04/07 01:08:51;;;;;;;18.23;9.13;;;1.90;94.20;;;;;;5063678;28;20209;-67
2021/04/07 01:11:18;;;;;;;18.10;9.23;;;1.80;94.60;;;;;;5058955;28;20202;-67
2021/04/07 01:13:44;;;;;;;21.90;9.17;;;1.80;95.20;;;;;;5060549;28;20225;-67
2021/04/07 01:16:11;;;;;;;16.13;9.07;;;1.80;95.70;;;;;;5059876;28;20693;-68
2021/04/07 01:18:37;;;;;;;18.67;9.20;;;1.70;96.30;;;;;;5062317;28;20269;-68
2021/04/07 01:21:06;;;;;;;17.00;8.97;;;1.70;96.80;;;;;;5059070;28;20578;-66
2021/04/07 01:23:33;;;;;;;18.47;8.87;;;1.70;97.30;;;;;;5059625;28;20692;-67
2021/04/07 01:26:01;;;;;;;19.07;9.03;;;1.70;97.90;;;;;;5062677;28;20234;-68
2021/04/07 01:28:27;;;;;;;18.40;9.03;;;1.70;98.40;;;;;;5066230;28;20655;-68
2021/04/07 01:30:53;;;;;;;16.17;8.87;;;1.70;98.90;;;;;;5069470;28;20206;-68
2021/04/07 01:33:24;;;;;;;19.50;9.37;;;1.60;99.30;;;;;;5061459;28;20206;-68
2021/04/07 01:35:52;;;;;;;18.20;9.23;;;1.60;99.70;;;;;;5066838;28;20206;-68
2021/04/07 01:38:18;;;;;;;19.00;9.90;;;1.60;99.90;;;;;;5060132;28;20738;-67
2021/04/07 01:40:46;;;;;;;22.10;9.60;;;1.60;99.90;;;;;;5066259;28;20274;-67
2021/04/07 01:43:15;;;;;;;15.60;8.70;;;1.60;99.90;;;;;;5066684;28;20249;-67
2021/04/07 01:45:42;;;;;;;18.97;9.60;;;1.60;99.90;;;;;;5064281;28;20236;-67
2021/04/07 01:48:09;;;;;;;18.33;9.83;;;1.50;99.90;;;;;;5060688;28;20197;-68
2021/04/07 01:50:37;;;;;;;19.57;10.00;;;1.50;99.90;;;;;;5063647;28;20205;-68
2021/04/07 01:53:03;;;;;;;17.63;8.83;;;1.50;99.90;;;;;;5066935;28;20209;-68
2021/04/07 01:55:30;;;;;;;17.93;9.70;;;1.40;99.90;;;;;;5055208;28;20671;-67
2021/04/07 01:57:56;;;;;;;17.73;9.57;;;1.40;99.90;;;;;;5058886;28;20296;-67
2021/04/07 02:00:23;;;;;;;18.00;9.73;;;1.40;99.90;;;;;;5053744;28;20297;-67
2021/04/07 02:02:50;;;;;;;21.33;9.87;;;1.30;99.90;;;;;;5054618;28;20282;-67
2021/04/07 02:05:17;;;;;;;18.80;10.07;;;1.40;99.90;;;;;;5057341;28;20542;-67
2021/04/07 02:07:43;;;;;;;20.50;9.70;;;1.30;99.90;;;;;;5055848;28;20249;-68
2021/04/07 02:10:11;;;;;;;18.43;9.23;;;1.30;99.90;;;;;;5060525;28;20270;-68
2021/04/07 02:12:37;;;;;;;19.97;9.13;;;1.30;99.90;;;;;;5054780;28;20209;-67
2021/04/07 02:15:10;;;;;;;19.57;9.77;;;1.30;99.90;;;;;;5056561;28;20245;-67
2021/04/07 02:17:37;;;;;;;16.47;9.47;;;1.30;99.90;;;;;;5054358;28;20210;-67
2021/04/07 02:20:05;;;;;;;20.53;9.93;;;1.30;99.90;;;;;;5049886;28;20292;-67
2021/04/07 02:22:31;;;;;;;15.03;8.83;;;1.30;99.90;;;;;;5055859;28;20209;-68
2021/04/07 02:24:58;;;;;;;19.40;9.70;;;1.20;99.90;;;;;;5054304;28;20293;-69
2021/04/07 02:27:25;;;;;;;17.43;9.23;;;1.20;99.90;;;;;;5054016;28;20309;-67
2021/04/07 02:29:53;;;;;;;18.60;8.97;;;1.20;99.90;;;;;;5051699;28;20201;-68
2021/04/07 02:32:21;;;;;;;17.03;8.87;;;1.10;99.90;;;;;;5056542;28;20567;-68
2021/04/07 02:34:48;;;;;;;18.03;8.93;;;1.10;99.90;;;;;;5057979;28;20317;-66
2021/04/07 02:37:16;;;;;;;17.47;9.60;;;1.10;99.90;;;;;;5055602;28;20198;-68
2021/04/07 02:39:43;;;;;;;21.10;9.33;;;1.10;99.90;;;;;;5054825;28;20201;-68
2021/04/07 02:42:11;;;;;;;15.20;9.00;;;1.10;99.90;;;;;;5060322;28;20246;-67
2021/04/07 02:44:38;;;;;;;17.63;9.77;;;1.10;99.90;;;;;;5052223;28;20207;-67
2021/04/07 02:47:05;;;;;;;17.20;9.57;;;1.00;99.90;;;;;;5055379;28;20671;-67
2021/04/07 02:49:32;;;;;;;17.47;9.00;;;1.00;99.90;;;;;;5052377;28;20209;-67
2021/04/07 02:51:59;;;;;;;19.93;9.90;;;1.00;99.90;;;;;;5051630;28;20263;-68
2021/04/07 02:54:25;;;;;;;17.90;10.10;;;0.90;99.90;;;;;;5053524;28;20754;-66
2021/04/07 02:56:52;;;;;;;17.00;9.27;;;0.90;99.90;;;;;;5054504;28;20206;-67
2021/04/07 02:59:18;;;;;;;18.30;9.53;;;0.90;99.90;;;;;;5050734;28;20202;-67
2021/04/07 03:01:45;;;;;;;18.27;9.17;;;0.90;99.90;;;;;;5053987;28;20206;-68
2021/04/07 03:04:13;;;;;;;18.63;8.93;;;0.90;99.90;;;;;;5057310;28;20326;-66
2021/04/07 03:06:39;;;;;;;14.77;8.67;;;1.00;99.90;;;;;;5051300;28;20223;-67
2021/04/07 03:09:07;;;;;;;18.33;9.20;;;0.90;99.90;;;;;;5052383;28;20208;-66
2021/04/07 03:11:34;;;;;;;16.87;8.83;;;0.90;99.90;;;;;;5054242;28;20247;-66
2021/04/07 03:14:00;;;;;;;17.27;8.93;;;0.90;99.90;;;;;;5052336;28;20651;-66
2021/04/07 03:16:27;;;;;;;15.80;9.30;;;0.90;99.90;;;;;;5053441;28;20270;-65
2021/04/07 03:18:53;;;;;;;16.97;9.63;;;0.90;99.90;;;;;;5053419;28;20283;-66
2021/04/07 03:21:19;;;;;;;17.47;9.90;;;0.90;99.90;;;;;;5049602;28;20297;-67
2021/04/07 03:23:46;;;;;;;14.77;9.67;;;0.90;99.90;;;;;;5054580;28;20220;-67
2021/04/07 03:26:13;;;;;;;17.73;10.27;;;0.90;99.90;;;;;;5052223;28;20315;-67
2021/04/07 03:28:39;;;;;;;22.23;10.37;;;0.90;99.90;;;;;;5049471;28;20296;-67
2021/04/07 03:31:06;;;;;;;17.00;9.90;;;0.90;99.90;;;;;;5052878;28;20289;-67
2021/04/07 03:33:35;;;;;;;21.87;9.57;;;0.90;99.90;;;;;;5053182;28;20647;-68
2021/04/07 03:36:03;;;;;;;14.53;9.43;;;0.90;99.90;;;;;;5045752;28;20210;-68
2021/04/07 03:38:30;;;;;;;18.07;9.37;;;0.80;99.90;;;;;;5052095;28;20202;-67
2021/04/07 03:40:57;;;;;;;16.57;9.37;;;0.80;99.90;;;;;;5049655;28;20214;-67
2021/04/07 03:43:25;;;;;;;20.60;9.87;;;0.80;99.90;;;;;;5049704;28;20210;-69
2021/04/07 03:45:52;;;;;;;17.17;8.87;;;0.80;99.90;;;;;;5055202;28;20663;-67
2021/04/07 03:48:20;;;;;;;16.77;8.10;;;0.80;99.90;;;;;;5045873;28;20206;-69
2021/04/07 03:50:48;;;;;;;15.90;8.77;;;0.90;99.90;;;;;;5054477;28;20210;-69
2021/04/07 03:53:15;;;;;;;21.10;9.63;;;0.90;99.90;;;;;;5052681;28;20206;-67
2021/04/07 03:55:44;;;;;;;13.77;8.47;;;0.90;99.90;;;;;;5053696;28;20216;-67
2021/04/07 03:58:10;;;;;;;17.90;9.00;;;0.80;99.90;;;;;;5052012;28;20202;-68
2021/04/07 04:00:38;;;;;;;15.80;9.00;;;0.80;99.90;;;;;;5055977;28;20198;-67
2021/04/07 04:03:05;;;;;;;17.07;10.10;;;0.80;99.90;;;;;;5054426;28;20202;-67
2021/04/07 04:05:31;;;;;;;19.43;9.50;;;0.80;99.90;;;;;;5057622;28;20215;-67
2021/04/07 04:07:57;;;;;;;19.13;10.90;;;0.80;99.90;;;;;;5046484;28;20210;-66
2021/04/07 04:10:24;;;;;;;23.73;10.67;;;0.80;99.90;;;;;;5052044;28;20636;-68
2021/04/07 04:12:50;;;;;;;22.27;10.13;;;0.80;99.90;;;;;;5053786;28;20294;-69
2021/04/07 04:15:17;;;;;;;19.63;11.07;;;0.90;99.90;;;;;;5053551;28;20278;-67
2021/04/07 04:17:44;;;;;;;14.50;9.30;;;0.90;99.90;;;;;;5055113;28;20206;-68
2021/04/07 04:20:12;;;;;;;19.63;10.37;;;0.90;99.90;;;;;;5057708;28;20224;-68
2021/04/07 04:22:39;;;;;;;16.00;8.97;;;1.00;99.90;;;;;;5056704;28;20550;-67
2021/04/07 04:25:07;;;;;;;16.87;9.33;;;1.00;99.90;;;;;;5058025;28;20209;-67
2021/04/07 04:27:33;;;;;;;15.63;8.67;;;1.00;99.90;;;;;;5059676;28;20263;-69
2021/04/07 04:30:00;;;;;;;18.30;9.80;;;1.10;99.90;;;;;;5052941;28;20214;-68
2021/04/07 04:32:26;;;;;;;14.93;9.07;;;1.10;99.90;;;;;;5054893;28;20297;-68
2021/04/07 04:34:53;;;;;;;16.57;9.40;;;1.20;99.90;;;;;;5057317;28;20205;-66
2021/04/07 04:37:20;;;;;;;17.93;8.47;;;1.20;99.90;;;;;;5054684;28;20229;-69
2021/04/07 04:39:46;;;;;;;16.60;8.97;;;1.20;99.90;;;;;;5057255;28;20202;-68
2021/04/07 04:42:12;;;;;;;18.37;9.33;;;1.30;99.90;;;;;;5052906;28;20296;-67
2021/04/07 04:44:39;;;;;;;15.83;9.53;;;1.30;99.90;;;;;;5058029;28;20250;-68
2021/04/07 04:47:05;;;;;;;15.10;8.90;;;1.40;99.90;;;;;;5054817;28;20222;-67
2021/04/07 04:49:31;;;;;;;18.00;8.93;;;1.50;99.90;;;;;;5057861;28;20600;-67
2021/04/07 04:51:59;;;;;;;17.07;8.73;;;1.60;99.90;;;;;;5058250;28;20573;-67
2021/04/07 04:54:25;;;;;;;13.80;7.93;;;1.60;99.90;;;;;;5058020;28;20229;-67
2021/04/07 04:56:52;;;;;;;15.10;8.50;;;1.60;99.90;;;;;;5058831;28;20288;-67
2021/04/07 04:59:18;;;;;;;16.20;8.93;;;1.60;99.90;;;;;;5056989;28;20198;-66
2021/04/07 05:01:44;;;;;;;17.67;8.70;;;1.60;99.90;;;;;;5056093;28;20331;-67
2021/04/07 05:04:11;;;;;;;16.53;9.27;;;1.60;99.90;;;;;;5052996;28;20214;-66
2021/04/07 05:06:38;;;;;;;14.23;8.27;;;1.60;99.90;;;;;;5056235;28;20634;-67
2021/04/07 05:09:06;;;;;;;14.97;8.07;;;1.70;99.90;;;;;;5050848;28;20213;-65
2021/04/07 05:11:33;;;;;;;17.93;8.63;;;1.70;99.90;;;;;;5060269;28;20301;-67
2021/04/07 05:13:59;;;;;;;15.87;8.33;;;1.70;99.90;;;;;;5050410;28;20251;-66
2021/04/07 05:16:25;;;;;;;14.87;7.73;;;1.70;99.90;;;;;;5057208;28;20197;-67
2021/04/07 05:18:52;;;;;;;14.40;8.50;;;1.70;99.90;;;;;;5056076;28;20213;-68
2021/04/07 05:21:18;;;;;;;13.30;7.73;;;1.70;99.90;;;;;;5054649;28;20206;-68
2021/04/07 05:23:45;;;;;;;15.63;8.67;;;1.80;99.90;;;;;;5056415;28;20210;-67
2021/04/07 05:26:12;;;;;;;12.83;7.40;;;1.80;99.90;;;;;;5057361;28;20568;-66
2021/04/07 05:28:40;;;;;;;13.60;7.83;;;1.80;99.90;;;;;;5059660;28;20285;-67
2021/04/07 05:31:07;;;;;;;15.73;9.07;;;1.80;99.90;;;;;;5051880;28;20206;-67
2021/04/07 05:33:35;;;;;;;14.53;8.40;;;1.90;99.90;;;;;;5052810;28;20206;-67
2021/04/07 05:36:04;;;;;;;14.47;8.73;;;1.90;99.90;;;;;;5050401;28;20293;-68
2021/04/07 05:38:30;;;;;;;14.93;9.20;;;1.90;99.90;;;;;;5058280;28;20269;-69
2021/04/07 05:40:58;;;;;;;13.03;8.53;;;2.00;99.90;;;;;;5057558;28;20220;-68
2021/04/07 05:43:26;;;;;;;15.17;9.20;;;2.00;99.90;;;;;;5057883;28;20317;-68
2021/04/07 05:45:53;;;;;;;11.87;7.97;;;2.00;99.90;;;;;;5056799;28;20229;-69
2021/04/07 05:48:20;;;;;;;11.80;8.23;;;2.10;99.90;;;;;;5052598;28;20712;-68
2021/04/07 05:50:48;;;;;;;18.43;8.93;;;2.10;99.90;;;;;;5057060;28;20207;-67
2021/04/07 05:53:15;;;;;;;13.43;8.57;;;2.10;99.90;;;;;;5050835;28;20202;-68
2021/04/07 05:55:44;;;;;;;15.23;8.00;;;2.10;99.90;;;;;;5052256;28;20362;-68
2021/04/07 05:58:10;;;;;;;14.03;8.63;;;2.20;99.90;;;;;;5069198;28;20215;-67
2021/04/07 06:00:39;;;;;;;12.33;8.27;;;2.20;99.90;;;;;;5044780;28;20640;-67
2021/04/07 06:03:07;;;;;;;15.60;9.00;;;2.10;99.90;;;;;;5054298;28;20577;-67
2021/04/07 06:05:35;;;;;;;13.93;9.53;;;2.10;99.90;;;;;;5054585;28;20305;-68
2021/04/07 06:08:02;;;;;;;13.13;9.13;;;2.10;99.90;;;;;;5054130;28;20304;-68
2021/04/07 06:10:30;;;;;;;15.47;9.73;;;2.10;99.90;;;;;;5053114;28;20235;-68
2021/04/07 06:12:57;;;;;;;16.80;9.33;;;2.00;99.90;;;;;;5052860;28;20289;-69
2021/04/07 06:15:24;;;;;;;12.53;8.97;;;2.00;99.90;;;;;;5053688;28;20324;-68
2021/04/07 06:17:54;;;;;;;12.57;9.47;;;2.00;99.90;;;;;;5042016;28;20262;-67
2021/04/07 06:20:22;;;;;;;16.30;9.40;;;2.00;99.90;;;;;;5048855;28;20229;-68
2021/04/07 06:22:48;;;;;;;14.33;9.27;;;2.00;99.90;;;;;;5043577;28;20213;-68
2021/04/07 06:25:15;;;;;;;16.40;9.63;;;1.90;99.90;;;;;;5044541;28;20202;-67
2021/04/07 06:27:41;;;;;;;12.10;8.80;;;1.90;99.90;;;;;;5054424;28;20240;-67
2021/04/07 06:30:10;;;;;;;17.40;8.93;;;2.00;99.90;;;;;;5053214;28;20208;-70
2021/04/07 06:32:36;;;;;;;13.40;9.03;;;2.00;99.90;;;;;;5054557;28;20259;-69
2021/04/07 06:35:05;;;;;;;13.60;9.80;;;2.00;99.90;;;;;;5050720;28;20206;-67
2021/04/07 06:37:31;;;;;;;15.87;10.27;;;2.00;99.90;;;;;;5055188;28;20214;-68
2021/04/07 06:39:58;;;;;;;13.07;9.20;;;2.00;99.90;;;;;;5052819;28;20210;-68
2021/04/07 06:42:24;;;;;;;14.23;9.20;;;2.10;99.90;;;;;;5054380;28;20544;-68
2021/04/07 06:44:50;;;;;;;16.10;9.40;;;2.00;99.90;;;;;;5054635;28;20696;-70
2021/04/07 06:47:18;;;;;;;13.63;9.03;;;2.10;99.90;;;;;;5053645;28;20222;-65
2021/04/07 06:49:49;;;;;;;17.43;8.80;;;2.00;99.90;;;;;;5053677;28;20313;-66
2021/04/07 06:52:20;;;;;;;14.93;9.20;;;1.90;99.90;;;;;;5052677;28;20285;-67
2021/04/07 06:54:47;;;;;;;15.37;9.13;;;1.90;99.90;;;;;;5053903;28;20251;-70
2021/04/07 06:57:16;;;;;;;14.70;9.77;;;1.90;99.90;;;;;;5054121;28;20258;-68
2021/04/07 06:59:43;;;;;;;12.50;9.47;;;1.80;99.90;;;;;;5053405;28;20206;-66
2021/04/07 07:02:11;;;;;;;14.33;9.17;;;1.80;99.90;;;;;;5052720;28;20210;-68
2021/04/07 07:04:37;;;;;;;12.63;9.03;;;1.80;99.90;;;;;;5054495;28;20283;-69
2021/04/07 07:07:05;;;;;;;10.93;7.83;;;1.90;99.90;;;;;;5059777;28;20225;-68
2021/04/07 07:09:32;;;;;;;10.77;7.20;;;1.90;99.90;;;;;;5053932;28;20206;-68
2021/04/07 07:11:59;;;;;;;10.43;7.27;;;1.90;99.90;;;;;;5053513;28;20224;-69
2021/04/07 07:14:26;;;;;;;11.13;7.30;;;2.00;99.90;;;;;;5052620;28;20336;-68
2021/04/07 07:16:54;;;;;;;15.83;8.67;;;2.00;99.90;;;;;;5053809;28;20558;-69
2021/04/07 07:19:22;;;;;;;13.27;8.27;;;2.00;99.90;;;;;;5053343;28;20202;-68
2021/04/07 07:21:56;;;;;;;10.97;7.80;;;2.10;99.90;;;;;;5053884;28;20206;-69
2021/04/07 07:24:30;;;;;;;10.37;7.57;;;2.10;99.90;;;;;;5053883;28;20585;-68
2021/04/07 07:26:58;;;;;;;9.53;6.80;;;2.20;99.90;;;;;;5054080;28;20229;-71
2021/04/07 07:29:26;;;;;;;11.33;6.97;;;2.10;99.90;;;;;;5053512;28;20208;-70
2021/04/07 07:32:00;;;;;;;12.43;7.33;;;2.20;99.90;;;;;;5051878;28;20413;-68
2021/04/07 07:34:28;;;;;;;10.00;6.67;;;2.30;99.90;;;;;;5054861;28;20718;-73
2021/04/07 07:36:54;;;;;;;10.87;6.63;;;2.30;99.90;;;;;;5054498;28;20274;-71
2021/04/07 07:39:26;;;;;;;11.57;7.07;;;2.30;99.90;;;;;;5050013;28;20554;-70
2021/04/07 07:41:59;;;;;;;11.57;7.07;;;2.20;99.90;;;;;;5053016;28;20206;-67
2021/04/07 07:44:28;;;;;;;9.73;6.37;;;2.20;99.90;;;;;;5052055;28;20198;-68
2021/04/07 07:46:59;;;;;;;10.03;5.60;;;2.30;99.90;;;;;;5053130;28;20234;-67
2021/04/07 07:49:26;;;;;;;9.80;6.40;;;2.30;99.90;;;;;;5052512;28;20202;-67
2021/04/07 07:51:52;;;;;;;9.83;5.77;;;2.30;99.90;;;;;;5056444;28;20210;-67
2021/04/07 07:54:20;;;;;;;10.50;6.43;;;2.30;99.90;;;;;;5057637;28;20357;-66
2021/04/07 07:56:47;;;;;;;10.00;6.27;;;2.40;99.90;;;;;;5056218;28;20209;-68
2021/04/07 07:59:24;;;;;;;10.20;6.37;;;2.40;99.90;;;;;;5057074;28;20237;-69
2021/04/07 08:01:51;;;;;;;10.13;5.60;;;2.50;99.90;;;;;;5055256;28;20219;-68
2021/04/07 08:04:18;;;;;;;7.37;5.47;;;2.50;99.90;;;;;;5047468;28;20726;-68
2021/04/07 08:06:45;;;;;;;9.57;5.23;;;2.50;99.90;;;;;;5058542;28;20225;-68
2021/04/07 08:09:11;;;;;;;7.77;5.17;;;2.60;99.90;;;;;;5058240;28;20197;-68
2021/04/07 08:11:42;;;;;;;10.33;5.20;;;2.60;99.90;;;;;;5055322;28;21830;-68
2021/04/07 08:14:12;;;;;;;9.77;5.63;;;2.60;99.90;;;;;;5055982;28;20246;-68
2021/04/07 08:16:39;;;;;;;7.13;5.33;;;2.60;99.90;;;;;;5052019;28;20294;-68
2021/04/07 08:19:07;;;;;;;8.30;5.93;;;2.60;99.90;;;;;;5050607;28;20202;-68
2021/04/07 08:21:35;;;;;;;6.60;4.77;;;2.60;99.90;;;;;;5053271;28;20246;-68
2021/04/07 08:24:02;;;;;;;7.43;4.93;;;2.60;99.90;;;;;;5047199;28;20208;-68
2021/04/07 08:26:31;;;;;;;9.63;5.60;;;2.60;99.90;;;;;;5050523;28;20232;-66
2021/04/07 08:28:58;;;;;;;7.87;5.77;;;2.70;99.90;;;;;;5049725;28;20212;-63
2021/04/07 08:31:27;;;;;;;11.77;5.80;;;2.70;99.90;;;;;;5054295;28;20615;-67
2021/04/07 08:33:57;;;;;;;8.27;4.97;;;2.80;99.90;;;;;;5052161;28;20206;-66
2021/04/07 08:36:27;;;;;;;10.33;5.10;;;2.90;99.90;;;;;;5051832;28;20220;-66
2021/04/07 08:39:00;;;;;;;6.23;5.20;;;3.00;99.90;;;;;;5050982;28;20202;-67
2021/04/07 08:41:27;;;;;;;7.70;4.90;;;3.20;99.90;;;;;;5056022;28;20289;-65
2021/04/07 08:43:54;;;;;;;6.60;5.20;;;3.30;99.90;;;;;;5053299;28;20291;-65
2021/04/07 08:46:23;;;;;;;7.00;5.43;;;3.30;99.90;;;;;;5054527;28;20656;-67
2021/04/07 08:48:50;;;;;;;7.83;5.30;;;3.40;99.90;;;;;;5054014;28;20223;-66
2021/04/07 08:51:20;;;;;;;7.60;5.50;;;3.40;99.90;;;;;;5061282;28;21300;-67
2021/04/07 08:53:51;;;;;;;7.00;4.67;;;3.40;99.90;;;;;;5060705;28;20288;-66
2021/04/07 08:56:23;;;;;;;8.37;5.47;;;3.40;99.90;;;;;;5054927;28;20216;-67
2021/04/07 08:58:51;;;;;;;8.60;4.90;;;3.40;99.90;;;;;;5056035;28;20615;-67
2021/04/07 09:01:22;;;;;;;8.87;4.77;;;3.50;99.90;;;;;;5054084;28;20198;-68
2021/04/07 09:03:49;;;;;;;7.83;5.27;;;3.50;99.90;;;;;;5057135;28;20650;-69
2021/04/07 09:06:16;;;;;;;8.97;5.53;;;3.40;99.90;;;;;;5058836;28;20311;-68
2021/04/07 09:08:54;;;;;;;7.00;5.40;;;3.40;99.90;;;;;;5057907;28;20228;-69
2021/04/07 09:11:28;;;;;;;8.70;5.77;;;3.40;99.90;;;;;;5051652;28;20265;-71
2021/04/07 09:14:00;;;;;;;7.07;5.10;;;3.40;99.90;;;;;;5053591;28;20233;-69
2021/04/07 09:16:37;;;;;;;8.53;5.70;;;3.30;99.90;;;;;;5055826;28;20663;-70
2021/04/07 09:19:18;;;;;;;8.13;5.73;;;3.30;99.90;;;;;;5057387;28;20292;-70
2021/04/07 09:21:57;;;;;;;6.07;5.13;;;3.30;99.90;;;;;;5052430;28;20293;-70
2021/04/07 09:24:29;;;;;;;8.93;5.33;;;3.40;99.90;;;;;;5056180;28;20202;-70
2021/04/07 09:26:57;;;;;;;5.97;4.80;;;3.60;99.90;;;;;;5053882;28;20559;-69
2021/04/07 09:29:24;;;;;;;7.27;5.03;;;4.00;99.90;;;;;;5051227;28;20580;-68
2021/04/07 09:31:51;;;;;;;7.00;5.20;;;4.30;99.90;;;;;;5051501;28;20303;-68
2021/04/07 09:34:18;;;;;;;7.13;4.80;;;4.40;99.90;;;;;;5051529;28;20202;-68
2021/04/07 09:36:47;;;;;;;7.30;4.23;;;4.50;99.90;;;;;;5056559;28;20720;-70
2021/04/07 09:39:15;;;;;;;6.63;4.60;;;4.60;99.90;;;;;;5052959;28;20213;-70
2021/04/07 09:41:44;;;;;;;10.37;5.10;;;4.60;99.90;;;;;;5055977;28;20293;-67
2021/04/07 09:44:15;;;;;;;7.10;4.70;;;4.60;99.90;;;;;;5056915;28;20582;-68
2021/04/07 09:46:42;;;;;;;5.33;4.50;;;4.90;99.90;;;;;;5056830;28;20214;-70
2021/04/07 09:49:10;;;;;;;6.20;4.30;;;5.20;99.90;;;;;;5049062;28;20656;-69
2021/04/07 09:51:38;;;;;;;5.80;4.20;;;5.70;99.90;;;;;;5052980;28;20213;-69
2021/04/07 09:54:14;;;;;;;7.20;3.97;;;6.40;99.90;;;;;;5058622;28;20194;-68
2021/04/07 09:56:52;;;;;;;4.27;3.50;;;7.10;99.80;;;;;;5057503;28;20297;-69
2021/04/07 09:59:20;;;;;;;7.37;4.47;;;7.70;94.70;;;;;;5050986;28;20240;-68
2021/04/07 10:01:46;;;;;;;6.87;3.80;;;7.90;90.50;;;;;;5052454;28;20213;-70
2021/04/07 10:04:13;;;;;;;10.17;4.47;;;7.80;87.30;;;;;;5047633;28;20206;-69
2021/04/07 10:06:39;;;;;;;4.93;3.70;;;7.60;85.50;;;;;;5056053;28;20229;-68
2021/04/07 10:09:08;;;;;;;4.40;3.83;;;7.50;88.00;;;;;;5055138;28;20220;-69
2021/04/07 10:11:38;;;;;;;4.30;3.67;;;7.60;86.90;;;;;;5051780;28;20261;-69
2021/04/07 10:14:06;;;;;;;6.30;4.13;;;7.70;85.10;;;;;;5050510;28;20326;-71
2021/04/07 10:16:34;;;;;;;6.13;4.00;;;7.70;83.40;;;;;;5054572;28;20198;-69
2021/04/07 10:19:05;;;;;;;5.37;4.00;;;7.70;81.60;;;;;;5054198;28;20356;-70
2021/04/07 10:21:31;;;;;;;7.37;4.47;;;7.60;81.50;;;;;;5051613;28;20297;-70
2021/04/07 10:23:58;;;;;;;8.00;4.20;;;7.50;79.90;;;;;;5055438;28;20685;-70
2021/04/07 10:26:25;;;;;;;5.47;3.50;;;7.20;79.70;;;;;;5052708;28;20316;-67
2021/04/07 10:28:56;;;;;;;7.30;4.40;;;7.00;81.00;;;;;;5056115;28;20255;-68
2021/04/07 10:31:24;;;;;;;5.43;4.00;;;7.00;84.00;;;;;;5055547;28;20292;-68
2021/04/07 10:34:05;;;;;;;5.87;3.93;;;7.00;82.00;;;;;;5060226;28;20201;-68
2021/04/07 10:36:32;;;;;;;6.83;3.77;;;6.80;81.00;;;;;;5053129;28;20194;-68
2021/04/07 10:39:00;;;;;;;5.77;3.90;;;6.60;81.60;;;;;;5051813;28;20255;-68
2021/04/07 10:41:27;;;;;;;4.60;3.20;;;6.30;83.10;;;;;;5054077;28;20298;-68
2021/04/07 10:43:53;;;;;;;6.87;3.47;;;6.10;85.00;;;;;;5051113;28;20198;-67
2021/04/07 10:46:30;;;;;;;6.73;4.20;;;6.00;87.80;;;;;;5052058;28;20232;-68
2021/04/07 10:48:57;;;;;;;5.37;3.83;;;6.30;92.00;;;;;;5055096;28;20540;-68
2021/04/07 10:51:24;;;;;;;6.30;3.97;;;6.80;92.90;;;;;;5053148;28;20311;-68
2021/04/07 10:53:56;;;;;;;5.53;4.07;;;7.50;93.60;;;;;;5053684;28;20612;-67
2021/04/07 10:56:24;;;;;;;8.67;3.50;;;8.00;88.90;;;;;;5053805;28;20238;-66
2021/04/07 10:58:55;;;;;;;3.63;2.97;;;8.30;82.70;;;;;;5054049;28;20286;-67
2021/04/07 11:01:30;;;;;;;7.70;2.87;;;8.80;84.00;;;;;;5053020;28;20612;-68
2021/04/07 11:03:57;;;;;;;3.40;3.10;;;9.20;73.50;;;;;;5055515;28;20674;-68
2021/04/07 11:06:24;;;;;;;5.20;3.03;;;9.70;73.10;;;;;;5049308;28;20676;-67
2021/04/07 11:08:52;;;;;;;5.40;3.17;;;10.20;65.10;;;;;;5049079;28;20245;-69
2021/04/07 11:11:23;;;;;;;4.97;3.27;;;10.30;60.80;;;;;;5046503;28;20210;-69
2021/04/07 11:13:51;;;;;;;4.30;2.97;;;10.20;59.50;;;;;;5055304;28;20686;-68
2021/04/07 11:16:17;;;;;;;6.67;3.20;;;10.10;59.30;;;;;;5056631;28;20198;-69
2021/04/07 11:18:46;;;;;;;5.77;3.23;;;9.80;57.90;;;;;;5057895;28;20233;-69
2021/04/07 11:21:14;;;;;;;4.20;2.90;;;9.40;57.50;;;;;;5055020;28;20214;-69
2021/04/07 11:23:41;;;;;;;4.40;2.97;;;8.80;58.40;;;;;;5056602;28;20671;-69
2021/04/07 11:26:09;;;;;;;4.33;3.73;;;8.30;60.70;;;;;;5060846;28;20253;-69
2021/04/07 11:28:36;;;;;;;5.30;3.43;;;7.80;64.60;;;;;;5057385;28;20617;-69
2021/04/07 11:31:08;;;;;;;5.83;3.40;;;7.40;68.10;;;;;;5060656;28;20214;-69
2021/04/07 11:33:40;;;;;;;3.57;3.07;;;7.10;71.30;;;;;;5058953;28;20292;-70
2021/04/07 11:38:56;;;;;;;4.23;3.10;;;6.70;74.40;;;;;;5059430;28;20210;-70
2021/04/07 11:44:28;;;;;;;8.13;4.47;;;6.40;79.20;;;;;;5056383;28;20285;-70
2021/04/07 11:46:55;;;;;;;6.77;3.83;;;6.40;81.40;;;;;;5047008;28;20229;-69
2021/04/07 11:49:21;;;;;;;5.63;3.87;;;6.40;83.20;;;;;;5054245;28;20217;-68
2021/04/07 11:51:49;;;;;;;4.80;4.07;;;6.40;85.40;;;;;;5050978;28;20210;-69
2021/04/07 11:54:16;;;;;;;6.87;4.30;;;6.60;87.70;;;;;;5054283;28;20238;-70
2021/04/07 11:56:44;;;;;;;7.33;4.50;;;6.90;90.30;;;;;;5045699;28;20206;-69
2021/04/07 11:59:11;;;;;;;7.20;3.77;;;7.50;92.70;;;;;;5048439;28;20256;-70
2021/04/07 12:01:37;;;;;;;4.33;3.20;;;8.30;89.10;;;;;;5052638;28;20209;-69
2021/04/07 12:04:04;;;;;;;5.30;3.97;;;8.60;81.40;;;;;;5054546;28;20334;-68
2021/04/07 12:06:31;;;;;;;5.33;4.03;;;8.80;77.90;;;;;;5050127;28;20261;-69
2021/04/07 12:08:58;;;;;;;5.53;3.73;;;8.80;76.20;;;;;;5052555;28;20293;-69
2021/04/07 12:11:25;;;;;;;5.80;3.80;;;8.70;75.40;;;;;;5049489;28;20659;-69
2021/04/07 12:13:52;;;;;;;6.23;4.20;;;8.60;74.80;;;;;;5051853;28;20736;-70
2021/04/07 12:16:18;;;;;;;4.27;3.63;;;8.50;75.60;;;;;;5053406;28;20291;-68
2021/04/07 12:18:45;;;;;;;5.17;3.80;;;8.70;75.30;;;;;;5052592;28;20692;-68
2021/04/07 12:21:12;;;;;;;4.17;3.23;;;8.70;76.10;;;;;;5048822;28;20201;-69
2021/04/07 12:23:39;;;;;;;5.00;3.77;;;9.00;76.40;;;;;;5054306;28;20694;-68
2021/04/07 12:26:06;;;;;;;6.53;3.80;;;9.50;72.70;;;;;;5052683;28;20274;-68
2021/04/07 12:28:34;;;;;;;5.17;3.60;;;9.80;72.30;;;;;;5052948;28;20216;-69
2021/04/07 12:31:01;;;;;;;4.47;3.67;;;10.20;68.30;;;;;;5050845;28;20217;-68
2021/04/07 12:33:28;;;;;;;5.10;3.60;;;10.30;65.40;;;;;;5051036;28;20210;-67
2021/04/07 12:35:56;;;;;;;7.20;3.63;;;10.50;63.50;;;;;;5052540;28;20224;-68
2021/04/07 12:38:24;;;;;;;5.60;3.40;;;10.60;60.60;;;;;;5054489;28;20206;-69
2021/04/07 12:40:53;;;;;;;6.53;3.93;;;10.40;59.00;;;;;;5050021;28;20206;-68
2021/04/07 12:43:21;;;;;;;3.83;3.30;;;10.10;58.30;;;;;;5056981;28;20210;-68
2021/04/07 12:45:47;;;;;;;3.87;3.20;;;9.70;59.00;;;;;;5058295;28;20567;-68
2021/04/07 12:48:14;;;;;;;9.07;3.50;;;9.30;59.50;;;;;;5059821;28;20286;-68
2021/04/07 12:50:41;;;;;;;5.63;3.87;;;9.10;60.90;;;;;;5056094;28;20259;-67
2021/04/07 12:53:08;;;;;;;7.27;3.77;;;8.80;62.00;;;;;;5055787;28;20251;-67
2021/04/07 12:55:35;;;;;;;4.80;3.43;;;8.70;64.90;;;;;;5054326;28;20217;-67
2021/04/07 12:58:02;;;;;;;4.53;3.00;;;8.80;67.40;;;;;;5057151;28;20226;-68